Sky Ever — DSQX9 — position and weather

sailwx.info

Track history (hours):
 
Tides and Currents Weather Stations Pressure Air Temp Water Temp Dewpoint Dewpoint Depression Visibility Wind Speed Wind Dir Waves Ship Positions

Sky Ever

Last reported at 2016-Aug-04 07:23 UTC. Time now 2016-Aug-25 04:28 UTC.
Position N 34°37' E 134°57'.
Warning: this ship's position is 20 days out of date.

Length 76 m; draft 5.5 m.

Type: Cargo ship. MMSI: 441751000.

Date/timePositionNaut miles runAvg speedWind from/ knotsBaromVisibWave heightAir tempDewpointWater temp
2016-Aug-04 07:23N 34°37' E 134°57'5 5.7
2016-Aug-04 06:30N 34°36' E 135°03'15 7.8
2016-Aug-04 04:31N 34°33' E 135°21'3 0.1
2016-Aug-03 10:07N 34°31' E 135°24'0 0.0
2016-Aug-03 09:27N 34°31' E 135°24'0 0.0
2016-Aug-03 08:32N 34°31' E 135°24'0 0.0
2016-Aug-03 06:26N 34°31' E 135°24'0 0.0
2016-Aug-03 04:27N 34°31' E 135°24'0 0.0
2016-Aug-03 03:33N 34°31' E 135°24'0 0.0
2016-Aug-02 22:30N 34°31' E 135°24'2 2.4
2016-Aug-02 21:34N 34°32' E 135°21'0 0.0
2016-Aug-02 19:34N 34°32' E 135°21'0 0.0
2016-Aug-02 16:10N 34°32' E 135°21'0 0.0
2016-Aug-02 15:34N 34°32' E 135°21'0 0.0
2016-Aug-02 14:28N 34°32' E 135°21'0 0.0
2016-Aug-02 11:10N 34°32' E 135°21'0 0.0
2016-Aug-02 10:34N 34°32' E 135°21'0 0.0
2016-Aug-02 09:34N 34°32' E 135°21'0 0.0
2016-Aug-02 08:34N 34°32' E 135°21'0 0.0
2016-Aug-02 07:10N 34°32' E 135°21'0 0.0
2016-Aug-02 06:34N 34°32' E 135°21'0 0.0
2016-Aug-02 04:34N 34°32' E 135°21'0 0.0
2016-Aug-02 03:21N 34°32' E 135°21'0 0.0
2016-Aug-02 02:34N 34°32' E 135°21'0 0.0
2016-Aug-01 23:33N 34°32' E 135°21'0 0.0
2016-Aug-01 21:21N 34°32' E 135°21'0 0.0
2016-Aug-01 20:33N 34°32' E 135°21'0 0.0
2016-Aug-01 19:33N 34°32' E 135°21'0 0.0
2016-Aug-01 18:22N 34°32' E 135°21'0 0.0
2016-Aug-01 17:33N 34°32' E 135°21'0 0.0
2016-Aug-01 16:32N 34°32' E 135°21'0 0.1
2016-Aug-01 15:33N 34°32' E 135°21'0 0.0
2016-Aug-01 14:33N 34°32' E 135°21'0 0.0
2016-Aug-01 13:33N 34°32' E 135°21'0 0.0
2016-Aug-01 11:33N 34°32' E 135°21'0 0.0
2016-Aug-01 10:33N 34°32' E 135°21'0 0.1
2016-Aug-01 09:29N 34°32' E 135°21'0 0.0
2016-Aug-01 08:25N 34°32' E 135°21'0 0.0
2016-Aug-01 07:27N 34°32' E 135°21'0 0.0
2016-Aug-01 06:18N 34°32' E 135°21'0 0.0
2016-Aug-01 04:29N 34°32' E 135°21'0 0.0
2016-Aug-01 03:33N 34°32' E 135°21'0 0.1
2016-Aug-01 02:33N 34°32' E 135°21'0 0.0
2016-Aug-01 01:27N 34°32' E 135°21'0 0.0
2016-Aug-01 00:34N 34°32' E 135°21'0 0.0
2016-Jul-31 23:33N 34°32' E 135°21'0 0.0
2016-Jul-31 22:33N 34°32' E 135°21'0 0.0
2016-Jul-31 21:33N 34°32' E 135°21'0 0.0
2016-Jul-31 20:33N 34°32' E 135°21'7 7.6
2016-Jul-31 19:33N 34°35' E 135°13'  
Track history (hours):
 
Tides and Currents Weather Stations Pressure Air Temp Water Temp Dewpoint Dewpoint Depression Visibility Wind Speed Wind Dir Waves Ship Positions

Sky Ever

Last reported at 2016-Aug-04 07:23 UTC. Time now 2016-Aug-25 04:28 UTC.
Position N 34°37' E 134°57'.
Warning: this ship's position is 20 days out of date.

Length 76 m; draft 5.5 m.

Type: Cargo ship. MMSI: 441751000.

Date/timePositionNaut miles runAvg speedWind from/ knotsBaromVisibWave heightAir tempDewpointWater temp
2016-Aug-04 07:23N 34°37' E 134°57'5 5.7
2016-Aug-04 06:30N 34°36' E 135°03'15 7.8
2016-Aug-04 04:31N 34°33' E 135°21'3 0.1
2016-Aug-03 10:07N 34°31' E 135°24'0 0.0
2016-Aug-03 09:27N 34°31' E 135°24'0 0.0
2016-Aug-03 08:32N 34°31' E 135°24'0 0.0
2016-Aug-03 06:26N 34°31' E 135°24'0 0.0
2016-Aug-03 04:27N 34°31' E 135°24'0 0.0
2016-Aug-03 03:33N 34°31' E 135°24'0 0.0
2016-Aug-02 22:30N 34°31' E 135°24'2 2.4
2016-Aug-02 21:34N 34°32' E 135°21'0 0.0
2016-Aug-02 19:34N 34°32' E 135°21'0 0.0
2016-Aug-02 16:10N 34°32' E 135°21'0 0.0
2016-Aug-02 15:34N 34°32' E 135°21'0 0.0
2016-Aug-02 14:28N 34°32' E 135°21'0 0.0
2016-Aug-02 11:10N 34°32' E 135°21'0 0.0
2016-Aug-02 10:34N 34°32' E 135°21'0 0.0
2016-Aug-02 09:34N 34°32' E 135°21'0 0.0
2016-Aug-02 08:34N 34°32' E 135°21'0 0.0
2016-Aug-02 07:10N 34°32' E 135°21'0 0.0
2016-Aug-02 06:34N 34°32' E 135°21'0 0.0
2016-Aug-02 04:34N 34°32' E 135°21'0 0.0
2016-Aug-02 03:21N 34°32' E 135°21'0 0.0
2016-Aug-02 02:34N 34°32' E 135°21'0 0.0
2016-Aug-01 23:33N 34°32' E 135°21'0 0.0
2016-Aug-01 21:21N 34°32' E 135°21'0 0.0
2016-Aug-01 20:33N 34°32' E 135°21'0 0.0
2016-Aug-01 19:33N 34°32' E 135°21'0 0.0
2016-Aug-01 18:22N 34°32' E 135°21'0 0.0
2016-Aug-01 17:33N 34°32' E 135°21'0 0.0
2016-Aug-01 16:32N 34°32' E 135°21'0 0.1
2016-Aug-01 15:33N 34°32' E 135°21'0 0.0
2016-Aug-01 14:33N 34°32' E 135°21'0 0.0
2016-Aug-01 13:33N 34°32' E 135°21'0 0.0
2016-Aug-01 11:33N 34°32' E 135°21'0 0.0
2016-Aug-01 10:33N 34°32' E 135°21'0 0.1
2016-Aug-01 09:29N 34°32' E 135°21'0 0.0
2016-Aug-01 08:25N 34°32' E 135°21'0 0.0
2016-Aug-01 07:27N 34°32' E 135°21'0 0.0
2016-Aug-01 06:18N 34°32' E 135°21'0 0.0
2016-Aug-01 04:29N 34°32' E 135°21'0 0.0
2016-Aug-01 03:33N 34°32' E 135°21'0 0.1
2016-Aug-01 02:33N 34°32' E 135°21'0 0.0
2016-Aug-01 01:27N 34°32' E 135°21'0 0.0
2016-Aug-01 00:34N 34°32' E 135°21'0 0.0
2016-Jul-31 23:33N 34°32' E 135°21'0 0.0
2016-Jul-31 22:33N 34°32' E 135°21'0 0.0
2016-Jul-31 21:33N 34°32' E 135°21'0 0.0
2016-Jul-31 20:33N 34°32' E 135°21'7 7.6
2016-Jul-31 19:33N 34°35' E 135°13'  

Dump ship's entire track history